Terminal Aerodrome Forecast
Issued by NWS

Home | Current Version | Previous Version | Graphics & Text | Print | Product List | Glossary On
Versions: 1 2 3 4 5 6 7 8 9 10 11 12 13 14 15 16 17 18 19
000
FTUS43 KGRB 151600 AAA
TAFAUW
TAF AMD
KAUW 151613Z 1516/1612 29010KT P6SM SCT050
      TEMPO 1516/1520 -SN BKN050
     FM152300 27006KT P6SM SCT200
     FM160300 13003KT P6SM BKN120
     FM160600 12004KT P6SM OVC080
     FM161000 12010KT P6SM -SN SCT025 OVC040
      TEMPO 1610/1612 3SM -SN BKN020=

USA.gov is the U.S. government's official web portal to all federal, state and local government web resources and services.